首页
METAR-TAF:

METAR-TAF

机场 :

聖約翰斯, 紐芬蘭-拉布拉多, 加拿大

圣约翰斯国际机场

纬度: 47-37N, 经度: 052-44W, 海拔: 134米

当前天气观测

该预报发布于39分钟前的06:00 UTC
风速15节,风向北转西北,有时为20节阵风
温度 -7°C
湿度 79%
气压 1003 hPa
能見度: 24.1公里
多云层高于1600英尺

METAR: CYYT 200600Z 33015G20KT 15SM BKN016 M07/M10 A2963 RMK SC5 SLP045

时间: 03:09 (06:39 UTC)

预报

该预报发布于57分钟前的05:42 UTC
预报有效从20日的 06点(UTC)到 21日的 06点(UTC)
风速12节,风向北转西北,有时为22节阵风
能見度: 10公里
阴天层高于2000英尺
短暂存在
从 20日的 06点(UTC)到 20日的 09点(UTC)
散云层高于2000英尺
从 20日的 0900点(UTC)
风速12节,风向西
能見度: 10公里
散云层高于2000英尺
从 20日的 1700点(UTC)
风速15节,风向南转西南,有时为25节阵风
能見度: 9.7公里
多云层高于2000英尺
多云层高于10000英尺
小阵雪
从 20日的 2100点(UTC)
风速20节,风向南转西南,有时为30节阵风
能見度: 3.2公里
阴天层高于2000英尺
小雪
从 20日的 2300点(UTC)
风速15节,风向,有时为25节阵风
能見度: 1.2公里
阴天层高于800英尺
小阵雪
成为
从 20日的 23点(UTC)到 21日的 01点(UTC)
风速20节,风向西转西南,有时为30节阵风
能見度: 1.6公里
阴天层高于800英尺
小雨, 轻雾

TAF: CYYT 200542Z 2006/2106 33012G22KT P6SM OVC020 TEMPO 2006/2009 SCT020 FM200900 27012KT P6SM SCT020 FM201700 21015G25KT 6SM -SHSN BKN020 BKN100 FM202100 20020G30KT 2SM -SN OVC020 FM202300 18015G25KT 3/4SM -SHSN OVC008 BECMG 2023/2101 24020G30KT 1SM -RA BR OVC008 RMK NXT FCST BY 201200Z

超过4000个机场的气象观测和天气预报(METAR&TAF报告)。

可查询的气象台以黄色和红色小点在地图上表示。

将鼠标移到小点上方,可查看气象台名称。

然后点击查看天气观测和预报。

如需切换地图:点击带黑十字的绿色按钮放大地图;点击带横线的绿色按钮缩小地图;或者点击绿色箭头查看邻近地区的地图。


METAR-TAF: